createdAt,value
2023-05-09T00:02:28.693Z,4.80
2023-05-09T00:05:50.207Z,4.60
2023-05-09T00:09:13.805Z,4.65
2023-05-09T00:12:35.621Z,4.80
2023-05-09T00:15:58.465Z,5.03
2023-05-09T00:19:20.071Z,5.03
2023-05-09T00:22:41.757Z,5.38
2023-05-09T00:26:05.173Z,4.75
2023-05-09T00:29:26.390Z,4.80
2023-05-09T00:32:48.106Z,4.95
2023-05-09T00:36:09.837Z,4.70
2023-05-09T00:39:31.649Z,4.55
2023-05-09T00:42:56.013Z,4.40
2023-05-09T00:46:17.755Z,4.03
2023-05-09T00:49:39.467Z,3.97
2023-05-09T00:53:01.588Z,4.65
2023-05-09T00:56:23.606Z,4.13
2023-05-09T00:59:46.531Z,4.50
2023-05-09T01:03:08.582Z,4.25
2023-05-09T01:06:39.802Z,4.43
2023-05-09T01:10:06.458Z,5.00
2023-05-09T01:13:33.271Z,4.50
2023-05-09T01:17:03.270Z,4.10
2023-05-09T01:20:33.455Z,4.43
2023-05-09T01:24:18.587Z,3.80
2023-05-09T01:27:49.560Z,4.47
2023-05-09T01:31:12.414Z,4.90
2023-05-09T01:34:35.609Z,4.13
2023-05-09T01:37:58.884Z,4.47
2023-05-09T01:41:23.718Z,4.38
2023-05-09T01:44:48.136Z,4.20
2023-05-09T01:48:12.003Z,4.10
2023-05-09T01:51:35.205Z,4.35
2023-05-09T01:54:57.836Z,3.67
2023-05-09T01:58:21.765Z,4.10
2023-05-09T02:01:44.351Z,4.40
2023-05-09T02:05:10.317Z,4.70
2023-05-09T02:08:33.028Z,4.93
2023-05-09T02:11:55.153Z,4.95
2023-05-09T02:15:16.971Z,5.55
2023-05-09T02:18:38.411Z,5.47
2023-05-09T02:22:02.514Z,5.30
2023-05-09T02:25:24.224Z,5.13
2023-05-09T02:28:46.901Z,5.33
2023-05-09T02:32:11.960Z,5.97
2023-05-09T02:35:34.335Z,5.50
2023-05-09T02:38:57.350Z,5.80
2023-05-09T02:42:22.742Z,5.80
2023-05-09T02:45:44.214Z,6.20
2023-05-09T02:49:05.953Z,5.70
2023-05-09T02:52:27.785Z,6.23
2023-05-09T02:55:51.028Z,5.63
2023-05-09T02:59:12.473Z,5.50
2023-05-09T03:02:34.097Z,5.60
2023-05-09T03:05:56.009Z,5.47
2023-05-09T03:09:17.569Z,5.97
2023-05-09T03:12:43.784Z,5.93
2023-05-09T03:16:06.923Z,6.37
2023-05-09T03:19:28.658Z,5.57
2023-05-09T03:22:50.700Z,6.37
2023-05-09T03:26:12.718Z,6.37
2023-05-09T03:29:35.848Z,6.47
2023-05-09T03:32:58.224Z,6.63
2023-05-09T03:36:20.161Z,6.63
2023-05-09T03:39:41.627Z,6.03
2023-05-09T03:43:03.413Z,6.30
2023-05-09T03:46:26.633Z,6.07
2023-05-09T03:49:48.516Z,6.93
2023-05-09T03:53:13.525Z,6.60
2023-05-09T03:56:36.037Z,6.40
2023-05-09T03:59:58.175Z,5.77
2023-05-09T04:03:22.093Z,7.00
2023-05-09T04:06:46.000Z,6.53
2023-05-09T04:10:09.270Z,5.97
2023-05-09T04:13:31.817Z,6.30
2023-05-09T04:16:55.836Z,5.77
2023-05-09T04:20:19.335Z,5.77
2023-05-09T04:23:43.560Z,5.93
2023-05-09T04:27:06.411Z,6.03
2023-05-09T04:30:29.153Z,5.93
2023-05-09T04:33:53.064Z,6.13
2023-05-09T04:37:18.363Z,5.40
2023-05-09T04:40:40.931Z,5.53
2023-05-09T04:44:03.270Z,4.40
2023-05-09T04:47:24.979Z,5.10
2023-05-09T04:50:48.391Z,4.30
2023-05-09T04:54:11.720Z,4.30
2023-05-09T04:57:35.159Z,4.30
2023-05-09T05:00:58.973Z,4.40
2023-05-09T05:04:20.710Z,3.90
2023-05-09T05:07:43.320Z,3.93
2023-05-09T05:11:09.305Z,3.33
2023-05-09T05:14:31.329Z,3.90
2023-05-09T05:17:53.005Z,3.53
2023-05-09T05:21:17.792Z,4.23
2023-05-09T05:24:39.991Z,3.80
2023-05-09T05:28:03.382Z,4.43
2023-05-09T05:31:25.239Z,3.80
2023-05-09T05:34:46.904Z,3.43
2023-05-09T05:38:08.378Z,3.70
2023-05-09T05:41:30.146Z,4.10
2023-05-09T05:44:53.406Z,3.90
2023-05-09T05:48:14.895Z,4.00
2023-05-09T05:51:36.748Z,3.83
2023-05-09T05:54:59.865Z,3.50
2023-05-09T05:58:21.672Z,3.65
2023-05-09T06:01:45.558Z,3.72
2023-05-09T06:05:08.555Z,3.90
2023-05-09T06:08:30.064Z,3.85
2023-05-09T06:11:52.900Z,3.70
2023-05-09T06:15:14.808Z,4.28
2023-05-09T06:18:41.610Z,3.60
2023-05-09T06:22:03.342Z,3.38
2023-05-09T06:25:24.651Z,3.53
2023-05-09T06:28:46.238Z,3.45
2023-05-09T06:32:07.862Z,3.58
2023-05-09T06:35:30.515Z,3.63
2023-05-09T06:38:52.526Z,3.42
2023-05-09T06:42:14.529Z,3.72
2023-05-09T06:45:38.551Z,3.63
2023-05-09T06:49:01.708Z,3.40
2023-05-09T06:52:25.102Z,3.70
2023-05-09T06:55:47.368Z,3.80
2023-05-09T06:59:13.186Z,3.38
2023-05-09T07:02:34.935Z,2.97
2023-05-09T07:05:59.017Z,3.72
2023-05-09T07:09:21.938Z,3.42
2023-05-09T07:12:43.595Z,2.90
2023-05-09T07:16:05.775Z,3.00
2023-05-09T07:19:27.570Z,3.25
2023-05-09T07:22:49.311Z,3.03
2023-05-09T07:26:12.129Z,3.10
2023-05-09T07:29:33.711Z,3.20
2023-05-09T07:32:55.259Z,3.20
2023-05-09T07:36:17.389Z,3.85
2023-05-09T07:39:38.862Z,3.63
2023-05-09T07:43:01.489Z,3.17
2023-05-09T07:46:22.959Z,3.03
2023-05-09T07:49:46.623Z,3.00
2023-05-09T07:53:08.535Z,3.35
2023-05-09T07:56:30.195Z,2.95
2023-05-09T07:59:52.890Z,2.90
2023-05-09T08:03:14.650Z,2.65
2023-05-09T08:06:36.667Z,2.92
2023-05-09T08:09:58.388Z,3.13
2023-05-09T08:13:20.106Z,3.05
2023-05-09T08:16:43.995Z,3.83
2023-05-09T08:20:08.090Z,3.22
2023-05-09T08:23:30.683Z,2.83
2023-05-09T08:26:52.264Z,3.42
2023-05-09T08:30:15.283Z,3.25
2023-05-09T08:33:40.534Z,3.20
2023-05-09T08:37:04.026Z,3.10
2023-05-09T08:40:25.911Z,3.15
2023-05-09T08:43:48.027Z,2.90
2023-05-09T08:47:10.209Z,3.50
2023-05-09T08:50:33.057Z,3.20
2023-05-09T08:53:55.065Z,3.13
2023-05-09T08:57:16.802Z,3.58
2023-05-09T09:00:38.831Z,3.25
2023-05-09T09:04:01.732Z,2.80
2023-05-09T09:07:30.539Z,2.72
2023-05-09T09:10:52.674Z,3.08
2023-05-09T09:14:20.247Z,3.28
2023-05-09T09:17:44.906Z,3.40
2023-05-09T09:21:10.658Z,3.25
2023-05-09T09:24:35.566Z,2.92
2023-05-09T09:27:57.253Z,3.22
2023-05-09T09:31:23.576Z,3.22
2023-05-09T09:34:44.893Z,3.10
2023-05-09T09:38:07.482Z,3.20
2023-05-09T09:41:34.118Z,3.47
2023-05-09T09:44:58.672Z,3.30
2023-05-09T09:48:20.074Z,2.95
2023-05-09T09:51:42.725Z,3.05
2023-05-09T09:55:04.704Z,3.35
2023-05-09T09:58:27.845Z,3.05
2023-05-09T10:02:07.055Z,3.28
2023-05-09T10:05:31.533Z,3.28
2023-05-09T10:08:52.695Z,3.10
2023-05-09T10:12:19.078Z,2.72
2023-05-09T10:15:53.001Z,2.97
2023-05-09T10:19:19.404Z,2.63
2023-05-09T10:22:41.570Z,3.03
2023-05-09T10:26:10.135Z,3.30
2023-05-09T10:29:36.284Z,3.45
2023-05-09T10:33:04.943Z,2.95
2023-05-09T10:36:27.098Z,2.63
2023-05-09T10:39:53.124Z,4.38
2023-05-09T10:43:14.797Z,2.95
2023-05-09T10:46:37.210Z,2.80
2023-05-09T10:50:00.684Z,2.53
2023-05-09T10:53:24.334Z,2.97
2023-05-09T10:56:45.994Z,3.10
2023-05-09T11:00:09.963Z,2.50
2023-05-09T11:03:55.514Z,2.58
2023-05-09T11:07:26.288Z,2.70
2023-05-09T11:10:48.551Z,2.90
2023-05-09T11:14:10.330Z,2.83
2023-05-09T11:17:33.102Z,2.88
2023-05-09T11:20:55.285Z,3.00
2023-05-09T11:24:23.957Z,2.60
2023-05-09T11:27:47.907Z,2.70
2023-05-09T11:31:13.931Z,2.70
2023-05-09T11:34:36.015Z,2.88
2023-05-09T11:38:02.035Z,2.60
2023-05-09T11:41:25.680Z,3.60
2023-05-09T11:44:48.633Z,2.70
2023-05-09T11:48:10.732Z,2.80
2023-05-09T11:51:32.497Z,2.78
2023-05-09T11:54:54.495Z,2.65
2023-05-09T11:58:18.458Z,2.55
2023-05-09T12:01:40.328Z,2.50
2023-05-09T12:05:10.651Z,2.70
2023-05-09T12:08:33.487Z,2.83
2023-05-09T12:11:54.905Z,2.45
2023-05-09T12:15:18.490Z,2.60
2023-05-09T12:18:45.759Z,2.70
2023-05-09T12:22:07.635Z,2.90
2023-05-09T12:25:29.428Z,3.10
2023-05-09T12:28:51.649Z,2.75
2023-05-09T12:32:15.531Z,2.85
2023-05-09T12:35:39.492Z,2.70
2023-05-09T12:39:00.837Z,3.65
2023-05-09T12:42:22.134Z,2.60
2023-05-09T12:45:43.684Z,2.90
2023-05-09T12:49:06.941Z,2.78
2023-05-09T12:52:35.357Z,2.70
2023-05-09T12:56:01.919Z,2.95
2023-05-09T12:59:24.757Z,3.05
2023-05-09T13:02:46.830Z,3.33
2023-05-09T13:06:14.058Z,2.65
2023-05-09T13:09:35.348Z,2.70
2023-05-09T13:12:57.320Z,2.80
2023-05-09T13:16:18.905Z,2.80
2023-05-09T13:19:40.802Z,2.60
2023-05-09T13:23:03.788Z,2.72
2023-05-09T13:26:25.996Z,3.03
2023-05-09T13:29:47.581Z,3.05
2023-05-09T13:33:23.921Z,3.00
2023-05-09T13:36:47.220Z,2.72
2023-05-09T13:40:12.350Z,2.45
2023-05-09T13:43:33.885Z,2.63
2023-05-09T13:46:57.777Z,2.42
2023-05-09T13:50:19.089Z,2.70
2023-05-09T13:53:40.963Z,2.92
2023-05-09T13:57:04.878Z,2.78
2023-05-09T14:00:26.779Z,3.17
2023-05-09T14:03:49.234Z,2.88
2023-05-09T14:07:12.075Z,2.83
2023-05-09T14:10:33.852Z,2.83
2023-05-09T14:13:56.898Z,2.65
2023-05-09T14:17:18.557Z,2.50
2023-05-09T14:20:40.657Z,2.80
2023-05-09T14:24:01.983Z,3.35
2023-05-09T14:27:23.234Z,2.67
2023-05-09T14:30:46.418Z,2.90
2023-05-09T14:34:09.248Z,2.60
2023-05-09T14:37:30.697Z,2.75
2023-05-09T14:40:52.652Z,2.60
2023-05-09T14:44:14.507Z,2.63
2023-05-09T14:47:37.476Z,2.83
2023-05-09T14:50:59.475Z,2.83
2023-05-09T14:54:21.403Z,2.80
2023-05-09T14:57:42.707Z,2.78
2023-05-09T15:01:04.997Z,2.75
2023-05-09T15:04:30.714Z,3.13
2023-05-09T15:07:52.886Z,2.83
2023-05-09T15:11:14.678Z,2.80
2023-05-09T15:14:36.292Z,2.38
2023-05-09T15:17:58.780Z,2.50
2023-05-09T15:21:21.622Z,2.60
2023-05-09T15:24:44.124Z,2.83
2023-05-09T15:28:06.997Z,2.70
2023-05-09T15:31:33.434Z,2.80
2023-05-09T15:34:55.006Z,2.75
2023-05-09T15:38:18.137Z,2.53
2023-05-09T15:41:39.998Z,2.40
2023-05-09T15:45:01.670Z,2.60
2023-05-09T15:48:23.127Z,2.38
2023-05-09T15:51:45.056Z,3.00
2023-05-09T15:55:10.156Z,2.47
2023-05-09T15:58:34.110Z,2.75
2023-05-09T16:01:56.494Z,2.80
2023-05-09T16:05:18.609Z,2.80
2023-05-09T16:08:40.299Z,3.03
2023-05-09T16:12:03.412Z,3.00
2023-05-09T16:15:25.108Z,2.90
2023-05-09T16:18:46.838Z,2.83
2023-05-09T16:22:08.481Z,2.65
2023-05-09T16:25:31.155Z,2.75
2023-05-09T16:28:55.055Z,2.72
2023-05-09T16:32:16.847Z,2.60
2023-05-09T16:35:38.871Z,2.40
2023-05-09T16:39:00.169Z,2.80
2023-05-09T16:42:21.351Z,2.90
2023-05-09T16:45:44.435Z,2.80
2023-05-09T16:49:06.155Z,2.83
2023-05-09T16:52:27.838Z,2.90
2023-05-09T16:55:49.335Z,2.67
2023-05-09T16:59:11.055Z,2.70
2023-05-09T17:02:33.650Z,2.70
2023-05-09T17:05:54.910Z,2.90
2023-05-09T17:09:16.966Z,3.53
2023-05-09T17:12:39.494Z,2.70
2023-05-09T17:16:01.578Z,3.08
2023-05-09T17:19:25.002Z,3.33
2023-05-09T17:22:46.896Z,2.85
2023-05-09T17:26:08.249Z,3.20
2023-05-09T17:29:31.073Z,3.10
2023-05-09T17:32:52.714Z,3.10
2023-05-09T17:36:15.717Z,2.90
2023-05-09T17:39:38.220Z,2.90
2023-05-09T17:42:59.795Z,3.03
2023-05-09T17:46:20.933Z,2.88
2023-05-09T17:49:42.587Z,3.10
2023-05-09T17:53:08.501Z,2.95
2023-05-09T17:56:30.487Z,3.10
2023-05-09T17:59:52.215Z,3.03
2023-05-09T18:03:14.014Z,3.60
2023-05-09T18:06:35.648Z,3.85
2023-05-09T18:09:58.746Z,2.97
2023-05-09T18:13:20.060Z,2.60
2023-05-09T18:16:41.668Z,3.10
2023-05-09T18:20:04.547Z,3.00
2023-05-09T18:23:26.026Z,3.15
2023-05-09T18:26:49.317Z,2.90
2023-05-09T18:30:11.186Z,3.03
2023-05-09T18:33:36.687Z,3.80
2023-05-09T18:36:58.217Z,3.63
2023-05-09T18:40:20.171Z,3.00
2023-05-09T18:43:45.942Z,3.45
2023-05-09T18:47:07.888Z,2.97
2023-05-09T18:50:29.609Z,3.30
2023-05-09T18:53:50.675Z,3.83
2023-05-09T18:57:11.930Z,3.47
2023-05-09T19:00:36.243Z,2.92
2023-05-09T19:03:57.513Z,3.38
2023-05-09T19:07:19.088Z,3.40
2023-05-09T19:10:40.592Z,3.03
2023-05-09T19:14:02.220Z,3.75
2023-05-09T19:17:25.099Z,2.97
2023-05-09T19:20:47.938Z,3.63
2023-05-09T19:24:09.583Z,3.53
2023-05-09T19:27:31.176Z,3.25
2023-05-09T19:30:53.224Z,3.42
2023-05-09T19:34:16.674Z,3.53
2023-05-09T19:37:38.377Z,3.42
2023-05-09T19:41:00.306Z,3.72
2023-05-09T19:44:21.896Z,3.15
2023-05-09T19:47:43.693Z,3.13
2023-05-09T19:51:08.796Z,3.40
2023-05-09T19:54:30.587Z,3.13
2023-05-09T19:57:52.128Z,3.45
2023-05-09T20:01:13.858Z,2.97
2023-05-09T20:04:37.464Z,3.42
2023-05-09T20:08:00.728Z,3.47
2023-05-09T20:11:22.402Z,3.28
2023-05-09T20:14:44.280Z,3.05
2023-05-09T20:18:07.362Z,3.03
2023-05-09T20:21:29.084Z,3.20
2023-05-09T20:24:52.204Z,3.20
2023-05-09T20:28:16.332Z,3.38
2023-05-09T20:31:38.433Z,3.33
2023-05-09T20:34:59.916Z,3.28
2023-05-09T20:38:21.962Z,3.20
2023-05-09T20:41:45.600Z,3.25
2023-05-09T20:45:08.295Z,3.38
2023-05-09T20:48:30.051Z,3.70
2023-05-09T20:51:51.953Z,3.30
2023-05-09T20:55:13.522Z,3.85
2023-05-09T20:58:36.140Z,3.88
2023-05-09T21:01:57.916Z,3.38
2023-05-09T21:05:19.157Z,3.20
2023-05-09T21:08:40.687Z,3.80
2023-05-09T21:12:03.834Z,3.33
2023-05-09T21:15:26.419Z,3.60
2023-05-09T21:18:47.591Z,3.30
2023-05-09T21:22:09.312Z,3.50
2023-05-09T21:25:30.973Z,3.55
2023-05-09T21:28:52.587Z,3.42
2023-05-09T21:32:16.766Z,3.45
2023-05-09T21:35:38.300Z,3.50
2023-05-09T21:38:59.764Z,2.97
2023-05-09T21:42:23.000Z,3.65
2023-05-09T21:45:44.651Z,3.75
2023-05-09T21:49:07.312Z,4.10
2023-05-09T21:52:28.879Z,4.07
2023-05-09T21:55:50.961Z,4.20
2023-05-09T21:59:12.504Z,3.80
2023-05-09T22:02:34.885Z,3.85
2023-05-09T22:05:57.635Z,3.97
2023-05-09T22:09:19.527Z,3.80
2023-05-09T22:12:40.763Z,3.80
2023-05-09T22:16:02.245Z,3.50
2023-05-09T22:19:24.172Z,4.10
2023-05-09T22:22:46.851Z,3.83
2023-05-09T22:26:08.620Z,3.90
2023-05-09T22:29:34.035Z,3.88
2023-05-09T22:32:55.581Z,4.47
2023-05-09T22:36:17.728Z,4.60
2023-05-09T22:39:40.768Z,4.18
2023-05-09T22:43:02.008Z,4.70
2023-05-09T22:46:23.257Z,4.40
2023-05-09T22:49:45.971Z,4.03
2023-05-09T22:53:07.455Z,4.18
2023-05-09T22:56:30.595Z,4.28
2023-05-09T22:59:53.328Z,4.85
2023-05-09T23:03:14.678Z,4.28
2023-05-09T23:06:36.302Z,4.30
2023-05-09T23:09:57.662Z,4.25
2023-05-09T23:13:21.061Z,4.80
2023-05-09T23:16:42.768Z,4.55
2023-05-09T23:20:04.986Z,4.32
2023-05-09T23:23:27.153Z,4.38
2023-05-09T23:26:48.628Z,4.88
2023-05-09T23:30:12.792Z,5.13
2023-05-09T23:33:34.707Z,4.53
2023-05-09T23:36:56.126Z,4.82
2023-05-09T23:40:17.561Z,4.38
2023-05-09T23:43:39.531Z,5.38
2023-05-09T23:47:03.046Z,4.95
2023-05-09T23:50:24.604Z,4.55
2023-05-09T23:53:46.031Z,4.63
2023-05-09T23:57:07.791Z,4.70
